Time;durP1;ratioP1;P1;durP2;ratioP2;P2;SDS_P1;SDS_P2;PMS_P1;PMS_P2;Temp;Humidity;BMP_temperature;BMP_pressure;BME280_temperature;BME280_humidity;BME280_pressure;Samples;Min_cycle;Max_cycle;Signal;HPM_P1;HPM_P2
2022/06/24 00:01:30;;;;;;;3.42;0.70;;;;;;;28.41;22.18;101132.69;4921143;29;20510;-75
2022/06/24 00:03:59;;;;;;;4.22;0.88;;;;;;;28.34;22.92;101135.66;4925482;29;20051;-76
2022/06/24 00:06:42;;;;;;;7.05;2.05;;;;;;;28.31;23.77;101133.09;4937111;29;20780;-75
2022/06/24 00:09:14;;;;;;;2.85;0.80;;;;;;;28.25;21.99;101142.19;4933768;28;20127;-77
2022/06/24 00:11:43;;;;;;;2.38;0.68;;;;;;;28.24;24.30;101137.78;4932647;29;20054;-75
2022/06/24 00:14:13;;;;;;;2.67;0.43;;;;;;;28.23;21.95;101132.53;4924693;29;20099;-75
2022/06/24 00:16:58;;;;;;;3.03;0.40;;;;;;;28.26;22.54;101137.72;4928753;29;20048;-73
2022/06/24 00:19:28;;;;;;;2.35;0.77;;;;;;;28.23;22.30;101144.03;4923658;29;20063;-76
2022/06/24 00:22:05;;;;;;;2.10;0.52;;;;;;;28.19;23.22;101143.28;4930355;29;20043;-75
2022/06/24 00:24:38;;;;;;;0.93;0.40;;;;;;;28.18;21.97;101130.91;4929217;29;20056;-74
2022/06/24 00:27:19;;;;;;;2.63;0.60;;;;;;;28.15;22.45;101130.16;4934647;29;20052;-74
2022/06/24 00:29:48;;;;;;;3.47;0.70;;;;;;;28.15;21.37;101125.72;4933869;29;20051;-75
2022/06/24 00:32:17;;;;;;;4.00;0.50;;;;;;;28.12;21.30;101128.47;4933877;29;20122;-75
2022/06/24 00:34:45;;;;;;;3.17;0.32;;;;;;;28.09;20.84;101125.94;4933087;29;20044;-76
2022/06/24 00:37:30;;;;;;;2.42;0.50;;;;;;;28.08;21.87;101118.00;4933876;29;20056;-78
2022/06/24 00:40:04;;;;;;;1.60;0.60;;;;;;;28.06;21.72;101120.75;4934024;29;20069;-76
2022/06/24 00:42:34;;;;;;;1.70;0.50;;;;;;;28.07;22.48;101103.84;4932459;29;20520;-76
2022/06/24 00:45:16;;;;;;;2.92;0.70;;;;;;;28.10;25.73;101103.72;4934309;29;20051;-80
2022/06/24 00:47:45;;;;;;;2.95;0.40;;;;;;;28.04;22.76;101096.00;4931574;29;20059;-75
2022/06/24 00:50:21;;;;;;;1.13;0.52;;;;;;;27.99;22.55;101095.28;4918254;29;20052;-75
2022/06/24 00:52:50;;;;;;;1.33;0.70;;;;;;;27.90;23.49;101087.66;4920013;29;20056;-77
2022/06/24 00:55:23;;;;;;;2.22;0.50;;;;;;;27.73;22.63;101080.28;4919585;29;20066;-74
2022/06/24 00:57:51;;;;;;;1.35;0.63;;;;;;;27.63;23.71;101084.19;4934512;29;20059;-74
2022/06/24 01:00:21;;;;;;;1.90;0.40;;;;;;;27.60;23.49;101082.50;4935845;29;20051;-76
2022/06/24 01:02:50;;;;;;;2.00;0.47;;;;;;;27.63;22.75;101089.53;4935051;29;20139;-76
2022/06/24 01:05:20;;;;;;;1.63;0.43;;;;;;;27.60;23.69;101082.50;4942804;29;20492;-74
2022/06/24 01:07:48;;;;;;;2.13;0.60;;;;;;;27.61;24.87;101084.25;4931615;28;20246;-76
2022/06/24 01:10:17;;;;;;;1.02;0.50;;;;;;;27.61;23.73;101081.59;4928592;29;20051;-76
2022/06/24 01:12:47;;;;;;;1.17;0.47;;;;;;;27.58;23.90;101092.34;4927546;29;20048;-76
2022/06/24 01:15:16;;;;;;;1.27;0.50;;;;;;;27.54;23.54;101080.09;4934645;29;20686;-78
2022/06/24 01:17:44;;;;;;;3.10;0.77;;;;;;;27.51;24.17;101085.50;4927187;29;20052;-76
2022/06/24 01:20:14;;;;;;;1.65;0.60;;;;;;;27.46;26.07;101085.66;4933204;29;20044;-74
2022/06/24 01:22:44;;;;;;;1.95;0.60;;;;;;;27.39;25.13;101083.28;4918595;29;20509;-76
2022/06/24 01:25:14;;;;;;;0.77;0.50;;;;;;;27.30;21.42;101072.03;4920493;29;20039;-76
2022/06/24 01:27:43;;;;;;;1.30;0.60;;;;;;;27.28;24.17;101076.56;4926469;29;20064;-75
2022/06/24 01:30:12;;;;;;;2.08;0.60;;;;;;;27.24;23.13;101076.72;4924325;29;20692;-75
2022/06/24 01:32:41;;;;;;;1.42;0.50;;;;;;;27.18;22.34;101085.72;4925258;29;20048;-75
2022/06/24 01:35:10;;;;;;;2.40;0.50;;;;;;;27.16;24.75;101095.53;4933837;29;20119;-74
2022/06/24 01:37:39;;;;;;;2.80;0.73;;;;;;;27.14;24.05;101089.41;4933463;29;20051;-77
2022/06/24 01:40:10;;;;;;;1.52;0.55;;;;;;;27.05;24.69;101090.59;4933272;29;20044;-78
2022/06/24 01:42:39;;;;;;;2.10;0.68;;;;;;;26.98;26.41;101091.72;4929043;29;20070;-75
2022/06/24 01:45:11;;;;;;;2.38;0.40;;;;;;;26.91;26.23;101088.38;4937034;29;20051;-75
2022/06/24 01:47:40;;;;;;;2.95;0.77;;;;;;;26.88;26.06;101093.81;4931227;29;20533;-74
2022/06/24 01:50:10;;;;;;;0.60;0.40;;;;;;;26.87;27.89;101094.75;4929038;29;20151;-78
2022/06/24 01:52:40;;;;;;;2.13;0.77;;;;;;;26.80;27.27;101093.22;4928887;29;20067;-75
2022/06/24 01:55:13;;;;;;;;;;;;;;;26.74;25.06;101090.75;4933052;29;20048;-75
2022/06/24 01:57:44;;;;;;;1.60;0.80;;;;;;;26.70;26.60;101086.44;4933481;29;19933;-77
2022/06/24 02:00:16;;;;;;;2.40;0.73;;;;;;;26.65;26.14;101096.34;4934541;29;20048;-75
2022/06/24 02:02:44;;;;;;;2.25;0.55;;;;;;;26.55;27.26;101103.75;4927600;29;20187;-73
2022/06/24 02:05:14;;;;;;;2.55;0.47;;;;;;;26.48;27.00;101107.44;4938398;29;20047;-74
2022/06/24 02:07:43;;;;;;;2.45;0.68;;;;;;;26.37;27.49;101099.84;4930804;28;20061;-78
2022/06/24 02:15:45;;;;;;;2.42;0.80;;;;;;;26.10;27.81;101102.41;4907086;29;20486;-74
2022/06/24 02:18:15;;;;;;;3.83;0.70;;;;;;;26.06;28.31;101110.50;4931263;29;20044;-75
2022/06/24 02:20:45;;;;;;;2.20;0.80;;;;;;;25.98;28.19;101102.78;4931410;29;20078;-76
2022/06/24 02:23:15;;;;;;;4.88;0.63;;;;;;;25.91;28.72;101103.88;4923254;29;20043;-79
2022/06/24 02:25:46;;;;;;;1.77;0.73;;;;;;;25.83;28.27;101108.47;4928287;29;20039;-77
2022/06/24 02:28:16;;;;;;;3.20;0.70;;;;;;;25.78;28.71;101110.38;4932938;29;20055;-77
2022/06/24 02:30:58;;;;;;;44.88;40.85;;;;;;;25.75;27.17;101106.03;4938161;29;20514;-80
2022/06/24 02:33:27;;;;;;;5.70;3.15;;;;;;;25.75;28.86;101113.09;4928885;29;20510;-78
2022/06/24 02:35:57;;;;;;;91.40;72.25;;;;;;;25.73;30.11;101112.31;4911686;29;20103;-79
2022/06/24 02:38:27;;;;;;;6.50;2.17;;;;;;;25.67;29.43;101108.03;4932148;29;20070;-79
2022/06/24 02:41:01;;;;;;;2.38;1.10;;;;;;;25.60;28.14;101104.69;4927886;29;20135;-75
2022/06/24 02:43:33;;;;;;;3.35;1.38;;;;;;;25.57;30.72;101106.56;4943147;29;20560;-76
2022/06/24 02:46:06;;;;;;;1.98;1.02;;;;;;;25.52;29.23;101106.69;4933887;29;20051;-79
2022/06/24 02:48:37;;;;;;;5.20;0.80;;;;;;;25.43;30.29;101107.78;4933637;29;20486;-80
2022/06/24 02:51:07;;;;;;;3.05;0.75;;;;;;;25.33;30.25;101108.94;4917467;29;20045;-78
2022/06/24 02:53:36;;;;;;;3.33;0.90;;;;;;;25.22;30.71;101101.28;4924849;29;20614;-81
2022/06/24 02:56:08;;;;;;;4.18;0.80;;;;;;;25.13;31.95;101117.38;4936878;29;20043;-79
2022/06/24 02:58:37;;;;;;;3.10;0.70;;;;;;;25.07;31.70;101106.94;4933960;29;20055;-78
2022/06/24 03:01:06;;;;;;;4.72;0.82;;;;;;;25.01;32.20;101117.66;4932485;29;20130;-76
2022/06/24 03:03:35;;;;;;;2.28;0.73;;;;;;;24.90;32.66;101109.09;4932050;29;20534;-80
2022/06/24 03:06:04;;;;;;;3.58;0.77;;;;;;;24.79;32.78;101109.41;4945169;29;20055;-78
2022/06/24 03:08:33;;;;;;;2.13;0.80;;;;;;;24.72;32.60;101116.59;4934884;28;20063;-79
2022/06/24 03:11:01;;;;;;;3.38;0.90;;;;;;;24.63;33.04;101112.38;4921790;29;20052;-79
2022/06/24 03:13:32;;;;;;;3.10;1.00;;;;;;;24.52;33.70;101118.84;4932197;29;20048;-76
2022/06/24 03:16:01;;;;;;;2.65;0.85;;;;;;;24.44;34.02;101117.22;4928835;29;20039;-78
2022/06/24 03:18:29;;;;;;;4.38;1.30;;;;;;;24.37;34.37;101117.34;4931005;29;20047;-78
2022/06/24 03:20:58;;;;;;;5.25;1.15;;;;;;;24.23;34.89;101121.19;4927493;29;20040;-81
2022/06/24 03:23:26;;;;;;;2.05;0.73;;;;;;;24.12;35.47;101120.53;4929454;29;20047;-76
2022/06/24 03:25:55;;;;;;;3.00;0.98;;;;;;;24.03;35.49;101123.38;4930267;29;20058;-80
2022/06/24 03:28:23;;;;;;;3.90;0.88;;;;;;;23.94;35.58;101121.78;4932316;29;20474;-79
2022/06/24 03:30:53;;;;;;;6.43;1.00;;;;;;;23.82;35.78;101122.00;4921278;29;20490;-81
2022/06/24 03:33:22;;;;;;;4.88;1.00;;;;;;;23.73;36.60;101119.50;4930549;29;20054;-76
2022/06/24 03:35:50;;;;;;;3.72;0.90;;;;;;;23.61;36.76;101131.19;4929161;29;20051;-76
2022/06/24 03:38:19;;;;;;;2.92;0.93;;;;;;;23.50;37.33;101134.06;4926187;29;20047;-75
2022/06/24 03:40:47;;;;;;;3.92;0.90;;;;;;;23.40;38.28;101135.09;4932165;29;20055;-78
2022/06/24 03:43:16;;;;;;;5.05;2.38;;;;;;;23.26;37.80;101137.97;4931173;29;20122;-76
2022/06/24 03:45:45;;;;;;;2.97;1.02;;;;;;;23.15;38.42;101140.78;4930987;29;20057;-75
2022/06/24 03:48:15;;;;;;;4.72;1.73;;;;;;;23.03;38.33;101148.06;4931546;29;20055;-80
2022/06/24 03:50:43;;;;;;;6.10;1.42;;;;;;;22.93;39.03;101142.88;4930849;29;20118;-75
2022/06/24 03:53:12;;;;;;;4.72;1.00;;;;;;;22.85;40.06;101146.53;4929888;29;20107;-79
2022/06/24 03:55:40;;;;;;;3.40;1.50;;;;;;;22.73;39.88;101148.44;4921476;29;20569;-76
2022/06/24 03:58:09;;;;;;;4.72;0.73;;;;;;;22.63;40.42;101152.13;4929466;29;20052;-76
2022/06/24 04:00:38;;;;;;;4.32;1.25;;;;;;;22.51;40.86;101150.50;4929378;29;20103;-77
2022/06/24 04:03:06;;;;;;;3.17;0.77;;;;;;;22.38;41.17;101144.53;4931802;29;20055;-77
2022/06/24 04:05:36;;;;;;;4.93;1.05;;;;;;;22.25;42.27;101135.03;4931760;29;20047;-79
2022/06/24 04:08:05;;;;;;;3.58;0.93;;;;;;;22.13;41.75;101156.25;4931040;28;20061;-75
2022/06/24 04:10:34;;;;;;;3.08;1.08;;;;;;;22.03;42.07;101149.34;4931577;29;20055;-77
2022/06/24 04:13:02;;;;;;;6.50;1.13;;;;;;;21.93;42.40;101148.56;4930179;29;20103;-75
2022/06/24 04:15:31;;;;;;;5.03;1.05;;;;;;;21.83;42.83;101160.09;4931798;29;20060;-76
2022/06/24 04:17:59;;;;;;;3.65;1.10;;;;;;;21.74;42.61;101163.72;4928325;29;20044;-75
2022/06/24 04:20:29;;;;;;;5.15;1.92;;;;;;;21.61;42.53;101168.22;4929759;29;20505;-76
2022/06/24 04:22:59;;;;;;;5.68;1.10;;;;;;;21.53;43.20;101178.84;4927782;29;20052;-77
2022/06/24 04:25:27;;;;;;;5.78;1.15;;;;;;;21.47;42.94;101180.63;4925878;29;20051;-75
2022/06/24 04:27:56;;;;;;;5.72;1.15;;;;;;;21.41;43.28;101183.31;4930697;29;20107;-75
2022/06/24 04:30:24;;;;;;;6.88;1.60;;;;;;;21.37;43.04;101197.34;4928837;29;20055;-75
2022/06/24 04:32:53;;;;;;;5.80;1.08;;;;;;;21.29;43.19;101197.41;4928921;29;20047;-75
2022/06/24 04:35:21;;;;;;;5.13;1.25;;;;;;;21.22;43.62;101201.84;4926390;29;20052;-75
2022/06/24 04:37:50;;;;;;;7.30;1.60;;;;;;;21.18;43.63;101199.25;4930424;29;20111;-74
2022/06/24 04:40:20;;;;;;;7.50;2.63;;;;;;;21.12;43.49;101201.06;4928787;29;20047;-76
2022/06/24 04:42:48;;;;;;;6.35;1.27;;;;;;;21.02;43.96;101204.63;4933290;29;20502;-75
2022/06/24 04:45:17;;;;;;;2.80;1.20;;;;;;;20.94;44.60;101201.19;4937542;29;20059;-79
2022/06/24 04:47:46;;;;;;;5.32;1.27;;;;;;;20.84;44.67;101210.84;4929162;29;20511;-75
2022/06/24 04:50:14;;;;;;;9.55;1.63;;;;;;;20.77;44.44;101210.91;4931455;29;20553;-74
2022/06/24 04:52:43;;;;;;;6.13;1.35;;;;;;;20.68;44.93;101219.72;4928868;29;20514;-78
2022/06/24 04:55:11;;;;;;;5.53;1.13;;;;;;;20.61;44.76;101224.13;4935713;29;20052;-77
2022/06/24 04:57:41;;;;;;;6.32;0.80;;;;;;;20.52;44.58;101221.50;4927502;29;20048;-75
2022/06/24 05:00:11;;;;;;;4.03;1.02;;;;;;;20.42;44.65;101225.94;4929013;29;20103;-75
2022/06/24 05:02:41;;;;;;;4.65;1.25;;;;;;;20.35;44.59;101245.22;4924880;29;20539;-78
2022/06/24 05:05:10;;;;;;;6.97;1.17;;;;;;;20.27;44.91;101245.25;4936760;29;20512;-78
2022/06/24 05:07:39;;;;;;;10.55;1.38;;;;;;;20.21;45.43;101245.28;4930793;29;20115;-78
2022/06/24 05:10:23;;;;;;;8.77;1.50;;;;;;;20.13;46.18;101252.28;4918433;29;20111;-78
2022/06/24 05:12:59;;;;;;;5.65;0.98;;;;;;;20.06;44.99;101263.69;4923420;29;20059;-78
2022/06/24 05:15:28;;;;;;;3.15;0.98;;;;;;;19.99;44.64;101259.31;4934886;29;20055;-80
2022/06/24 05:17:57;;;;;;;3.30;1.00;;;;;;;19.91;44.19;101266.34;4928448;29;20570;-78
2022/06/24 05:20:25;;;;;;;3.03;1.10;;;;;;;19.82;44.22;101278.59;4937270;29;20062;-78
2022/06/24 05:22:54;;;;;;;2.70;0.80;;;;;;;19.75;44.56;101274.22;4924254;29;20629;-78
2022/06/24 05:25:22;;;;;;;4.88;0.95;;;;;;;19.65;44.17;101272.41;4931545;29;20574;-83
2022/06/24 05:27:51;;;;;;;3.80;0.82;;;;;;;19.55;43.63;101270.69;4926196;29;20056;-76
2022/06/24 05:30:21;;;;;;;4.32;1.17;;;;;;;19.47;44.12;101273.31;4926158;29;20055;-78
2022/06/24 05:32:50;;;;;;;3.65;0.82;;;;;;;19.37;42.92;101269.78;4922056;29;20052;-76
2022/06/24 05:35:18;;;;;;;4.25;0.70;;;;;;;19.29;43.77;101278.50;4924655;29;20055;-81
2022/06/24 05:37:47;;;;;;;2.45;0.80;;;;;;;19.21;43.32;101275.88;4929977;29;20123;-80
2022/06/24 05:40:16;;;;;;;7.20;1.05;;;;;;;19.12;43.61;101278.47;4931174;29;20071;-76
2022/06/24 05:42:44;;;;;;;3.88;1.10;;;;;;;19.02;43.13;101281.06;4924685;29;20051;-79
2022/06/24 05:45:13;;;;;;;6.03;1.00;;;;;;;18.91;43.51;101274.91;4926154;29;20058;-82
2022/06/24 05:47:44;;;;;;;3.42;0.68;;;;;;;18.84;43.69;101273.16;4943707;29;20056;-79
2022/06/24 05:50:13;;;;;;;4.78;0.95;;;;;;;18.75;42.89;101276.56;4933906;29;20562;-78
2022/06/24 05:55:27;;;;;;;2.63;0.90;;;;;;;18.61;42.78;101289.63;4934266;29;20417;-79
2022/06/24 05:57:56;;;;;;;2.60;0.90;;;;;;;18.53;42.69;101280.84;4930122;29;20058;-78
2022/06/24 06:00:25;;;;;;;4.13;1.00;;;;;;;18.46;42.83;101302.63;4932874;29;20044;-78
2022/06/24 06:02:55;;;;;;;6.30;0.88;;;;;;;18.30;42.39;101295.53;4931697;29;20055;-80
2022/06/24 06:05:24;;;;;;;2.03;0.60;;;;;;;18.18;41.98;101297.22;4948283;29;20047;-84
2022/06/24 06:07:59;;;;;;;4.88;0.85;;;;;;;18.12;42.28;101310.28;4935444;28;20058;-82
2022/06/24 06:10:28;;;;;;;2.67;0.60;;;;;;;18.04;41.64;101317.19;4933504;29;20044;-74
2022/06/24 06:12:57;;;;;;;3.00;0.77;;;;;;;17.99;42.51;101311.06;4933859;29;20127;-79
2022/06/24 06:15:27;;;;;;;2.20;0.60;;;;;;;17.92;41.21;101309.25;4930952;29;20139;-81
2022/06/24 06:17:58;;;;;;;4.47;0.82;;;;;;;17.87;40.60;101316.22;4928267;29;20076;-77
2022/06/24 06:20:27;;;;;;;5.10;0.80;;;;;;;17.84;40.80;101321.38;4933380;29;20044;-78
2022/06/24 06:22:56;;;;;;;2.55;0.57;;;;;;;17.78;40.89;101312.59;4925274;29;20056;-76
2022/06/24 06:25:25;;;;;;;1.20;0.50;;;;;;;17.68;41.15;101318.59;4924556;29;20055;-78
2022/06/24 06:27:54;;;;;;;2.60;0.65;;;;;;;17.68;41.33;101320.34;4924658;29;20083;-80
2022/06/24 06:30:22;;;;;;;2.75;0.70;;;;;;;17.60;41.00;101307.19;4923939;29;20216;-78
2022/06/24 06:32:51;;;;;;;3.28;0.60;;;;;;;17.57;40.41;101307.19;4925863;29;20098;-76
2022/06/24 06:35:21;;;;;;;2.65;0.47;;;;;;;17.53;40.52;101302.78;4926376;29;20052;-77
2022/06/24 06:37:50;;;;;;;5.57;0.63;;;;;;;17.48;40.43;101320.16;4922496;29;20058;-77
2022/06/24 06:40:19;;;;;;;2.38;0.40;;;;;;;17.42;40.18;101296.56;4919751;29;20103;-76
2022/06/24 06:42:52;;;;;;;1.92;0.55;;;;;;;17.37;40.31;101309.59;4924143;29;20154;-76
2022/06/24 06:45:21;;;;;;;2.05;0.82;;;;;;;17.31;40.72;101310.38;4926813;29;20084;-76
2022/06/24 06:47:50;;;;;;;4.47;0.98;;;;;;;17.24;43.61;101311.19;4943080;29;20134;-75
2022/06/24 06:50:21;;;;;;;3.05;0.75;;;;;;;17.20;43.54;101309.38;4933548;29;20060;-76
2022/06/24 06:52:50;;;;;;;2.42;0.52;;;;;;;17.12;42.11;101309.31;4929992;29;20139;-77
2022/06/24 06:55:18;;;;;;;2.10;0.60;;;;;;;17.07;41.47;101307.53;4931774;29;20788;-76
2022/06/24 06:57:47;;;;;;;1.15;0.43;;;;;;;16.98;41.48;101300.44;4931837;29;20052;-77
2022/06/24 07:00:17;;;;;;;2.03;0.50;;;;;;;16.94;43.66;101301.25;4931999;29;20055;-76
2022/06/24 07:02:45;;;;;;;1.10;0.40;;;;;;;16.90;43.76;101302.94;4931678;29;20561;-79
2022/06/24 07:05:13;;;;;;;2.53;0.60;;;;;;;16.84;42.10;101296.78;4942943;29;20200;-76
2022/06/24 07:07:44;;;;;;;1.33;0.40;;;;;;;16.81;41.59;101288.88;4930455;29;20052;-75
2022/06/24 07:10:12;;;;;;;1.08;0.45;;;;;;;16.78;43.47;101292.31;4924325;28;20052;-75
2022/06/24 07:12:41;;;;;;;1.13;0.55;;;;;;;16.73;42.29;101286.16;4932628;29;20051;-75
2022/06/24 07:15:14;;;;;;;3.70;0.47;;;;;;;16.69;39.93;101294.81;4938921;29;20103;-76
2022/06/24 07:17:42;;;;;;;1.55;0.25;;;;;;;16.67;41.96;101286.06;4930789;29;20059;-75
2022/06/24 07:20:12;;;;;;;0.95;0.30;;;;;;;16.61;45.48;101284.28;4931721;29;20498;-75
2022/06/24 07:22:43;;;;;;;1.70;0.30;;;;;;;16.49;43.60;101277.16;4931116;29;20095;-77
2022/06/24 07:25:19;;;;;;;1.48;0.40;;;;;;;16.47;42.72;101286.69;4932475;29;20051;-75
2022/06/24 07:27:47;;;;;;;1.65;0.57;;;;;;;16.43;42.37;101286.63;4931115;29;20078;-78
2022/06/24 07:30:16;;;;;;;4.18;0.63;;;;;;;16.39;43.19;101290.91;4927790;29;20181;-76
2022/06/24 07:32:47;;;;;;;3.63;0.55;;;;;;;16.35;44.45;101294.34;4914367;29;20091;-76
2022/06/24 07:35:16;;;;;;;3.03;0.57;;;;;;;16.28;43.39;101284.66;4926385;29;20052;-76
2022/06/24 07:37:46;;;;;;;2.00;0.45;;;;;;;16.22;42.68;101302.88;4931319;29;20387;-76
2022/06/24 07:40:16;;;;;;;4.18;0.75;;;;;;;16.18;44.52;101299.31;4928844;29;20052;-76
2022/06/24 07:42:44;;;;;;;1.67;0.47;;;;;;;16.15;44.18;101299.28;4933872;29;20079;-75
2022/06/24 07:45:13;;;;;;;2.53;0.60;;;;;;;16.10;43.26;101288.78;4933040;29;20107;-75
2022/06/24 07:47:42;;;;;;;2.50;0.45;;;;;;;16.07;42.66;101300.88;4927742;29;20055;-75
2022/06/24 07:50:11;;;;;;;1.95;0.35;;;;;;;16.06;43.79;101310.47;4925468;29;20099;-76
2022/06/24 07:52:39;;;;;;;3.53;0.30;;;;;;;16.01;43.47;101304.28;4931316;29;20051;-75
2022/06/24 07:57:55;;;;;;;0.80;0.30;;;;;;;15.84;45.03;101314.44;4928114;29;20063;-75
2022/06/24 08:00:23;;;;;;;4.07;0.60;;;;;;;15.78;45.89;101313.44;4928958;29;20058;-76
2022/06/24 08:02:52;;;;;;;3.05;0.50;;;;;;;15.68;46.53;101302.81;4918476;29;20051;-74
2022/06/24 08:05:20;;;;;;;2.25;0.43;;;;;;;15.53;46.99;101292.16;4938586;29;20051;-75
2022/06/24 08:07:49;;;;;;;2.25;0.40;;;;;;;15.57;49.63;101309.59;4933206;29;20054;-74
2022/06/24 08:10:20;;;;;;;2.22;0.57;;;;;;;15.54;49.36;101308.66;4926503;28;20502;-76
2022/06/24 08:12:49;;;;;;;1.17;0.40;;;;;;;15.47;48.61;101308.53;4922629;29;20502;-75
2022/06/24 08:15:18;;;;;;;3.25;0.50;;;;;;;15.43;48.95;101311.94;4925171;29;20071;-74
2022/06/24 08:17:48;;;;;;;2.03;0.80;;;;;;;15.41;47.77;101317.97;4923936;29;20051;-76
2022/06/24 08:20:16;;;;;;;2.50;0.90;;;;;;;15.36;47.34;101306.59;4918093;29;20606;-76
2022/06/24 08:22:45;;;;;;;2.60;0.60;;;;;;;15.30;45.75;101304.75;4922448;29;20055;-74
2022/06/24 08:25:13;;;;;;;2.08;0.47;;;;;;;15.25;49.72;101314.22;4924633;29;20056;-76
2022/06/24 08:27:44;;;;;;;0.77;0.25;;;;;;;15.17;48.54;101315.81;4923491;29;20422;-76
2022/06/24 08:30:13;;;;;;;1.80;0.38;;;;;;;15.13;48.24;101314.84;4924810;29;20502;-76
2022/06/24 08:32:42;;;;;;;1.45;0.75;;;;;;;15.12;48.02;101318.31;4924435;29;20041;-76
2022/06/24 08:35:11;;;;;;;1.08;0.40;;;;;;;15.10;48.29;101312.19;4925408;29;20052;-75
2022/06/24 08:37:39;;;;;;;1.88;0.60;;;;;;;15.06;48.70;101315.59;4928285;29;20043;-76
2022/06/24 08:40:09;;;;;;;2.30;0.30;;;;;;;15.04;48.33;101314.66;4918075;29;20052;-75
2022/06/24 08:42:40;;;;;;;2.53;0.55;;;;;;;15.00;48.14;101315.44;4926546;29;20122;-77
2022/06/24 08:45:12;;;;;;;1.95;0.38;;;;;;;14.97;48.82;101307.56;4936462;29;20522;-77
2022/06/24 08:47:40;;;;;;;4.27;0.53;;;;;;;14.96;49.29;101314.53;4933083;29;20103;-76
2022/06/24 08:50:10;;;;;;;2.22;0.50;;;;;;;14.93;51.48;101308.34;4917465;29;20055;-76
2022/06/24 08:52:41;;;;;;;2.35;0.57;;;;;;;14.88;51.64;101326.50;4932848;29;20127;-77
2022/06/24 08:55:10;;;;;;;2.38;0.45;;;;;;;14.82;49.82;101322.06;4927764;29;20434;-77
2022/06/24 08:57:39;;;;;;;1.42;0.40;;;;;;;14.77;50.97;101326.25;4928409;29;20048;-76
2022/06/24 09:00:10;;;;;;;2.83;0.52;;;;;;;14.73;49.59;101324.47;4933331;29;20498;-77
2022/06/24 09:02:39;;;;;;;1.50;0.30;;;;;;;14.68;49.69;101326.06;4934693;29;20078;-78
2022/06/24 09:05:11;;;;;;;0.90;0.30;;;;;;;14.65;52.18;101333.81;4936384;29;20110;-76
2022/06/24 09:07:39;;;;;;;5.93;0.57;;;;;;;14.58;53.68;101331.94;4936356;29;20056;-75
2022/06/24 09:10:11;;;;;;;1.98;0.40;;;;;;;14.52;52.72;101336.97;4941395;28;20055;-75
2022/06/24 09:12:43;;;;;;;1.35;0.40;;;;;;;14.51;51.93;101340.41;4936780;29;20055;-76
2022/06/24 09:15:14;;;;;;;0.88;0.45;;;;;;;14.45;51.23;101347.25;4931531;29;20047;-76
2022/06/24 09:17:44;;;;;;;1.27;0.40;;;;;;;14.42;50.83;101336.75;4936913;29;20040;-76
2022/06/24 09:20:15;;;;;;;2.38;0.38;;;;;;;14.39;49.96;101333.22;4934855;29;20059;-76
2022/06/24 09:22:44;;;;;;;3.97;0.55;;;;;;;14.36;50.37;101344.44;4942578;29;20506;-75
2022/06/24 09:25:13;;;;;;;1.45;0.45;;;;;;;14.30;50.36;101344.28;4926526;29;20063;-76
2022/06/24 09:27:45;;;;;;;0.40;0.28;;;;;;;14.25;51.54;101357.19;4931856;29;20039;-75
2022/06/24 09:30:17;;;;;;;0.80;0.47;;;;;;;14.21;54.05;101359.69;4934795;29;20099;-75
2022/06/24 09:32:55;;;;;;;0.20;0.20;;;;;;;14.17;50.98;101365.66;4931547;29;20048;-75
2022/06/24 09:35:24;;;;;;;4.30;0.30;;;;;;;14.20;50.35;101377.03;4928307;29;20357;-74
2022/06/24 09:37:53;;;;;;;3.53;0.40;;;;;;;14.21;49.23;101377.91;4929177;29;20512;-75
2022/06/24 09:40:26;;;;;;;2.13;0.45;;;;;;;14.22;50.59;101377.06;4932193;29;20056;-73
2022/06/24 09:42:57;;;;;;;2.15;0.30;;;;;;;14.23;49.00;101373.63;4934132;29;20482;-78
2022/06/24 09:45:28;;;;;;;0.93;0.40;;;;;;;14.22;49.90;101371.84;4935275;29;20048;-77
2022/06/24 09:47:58;;;;;;;1.30;0.30;;;;;;;14.20;49.45;101374.44;4934046;29;20067;-75
2022/06/24 09:50:27;;;;;;;1.45;0.30;;;;;;;14.19;49.85;101377.84;4939810;28;20709;-74
2022/06/24 09:52:56;;;;;;;0.73;0.40;;;;;;;14.18;49.74;101375.25;4933722;29;20062;-75
2022/06/24 09:55:27;;;;;;;1.23;0.32;;;;;;;14.18;48.70;101367.44;4928815;29;20048;-74
2022/06/24 09:57:56;;;;;;;1.50;0.50;;;;;;;14.16;50.69;101364.78;4933485;29;20512;-75
2022/06/24 10:00:43;;;;;;;1.40;0.50;;;;;;;14.14;51.04;101371.66;4929233;29;20110;-75
2022/06/24 10:03:14;;;;;;;0.88;0.40;;;;;;;14.13;49.06;101364.72;4925395;29;20047;-75
2022/06/24 10:05:44;;;;;;;1.13;0.20;;;;;;;14.13;48.54;101363.81;4938121;29;20056;-76
2022/06/24 10:08:15;;;;;;;2.95;0.57;;;;;;;14.14;48.19;101368.19;4932307;29;20100;-75
2022/06/24 10:10:49;;;;;;;0.73;0.30;;;;;;;14.17;48.01;101370.84;4916369;28;20056;-75
2022/06/24 10:13:27;;;;;;;0.70;0.40;;;;;;;14.18;47.34;101360.50;4907478;29;20767;-74
2022/06/24 10:15:58;;;;;;;0.70;0.32;;;;;;;14.21;46.98;101367.50;4906689;29;20090;-75
2022/06/24 10:18:29;;;;;;;0.75;0.43;;;;;;;14.23;47.98;101371.03;4914749;29;20048;-76
2022/06/24 10:21:00;;;;;;;0.98;0.50;;;;;;;14.24;48.45;101363.22;4923897;29;20059;-74
2022/06/24 10:23:43;;;;;;;1.20;0.47;;;;;;;14.25;47.83;101369.34;4913100;29;20051;-75
2022/06/24 10:26:16;;;;;;;3.88;0.55;;;;;;;14.28;47.74;101371.13;4906936;29;20060;-75
2022/06/24 10:29:20;;;;;;;1.55;0.40;;;;;;;14.28;48.63;101369.41;4917914;29;20082;-76
2022/06/24 10:31:56;;;;;;;4.22;0.43;;;;;;;14.28;49.14;101363.31;4916097;29;20107;-75
2022/06/24 10:34:36;;;;;;;0.32;0.30;;;;;;;14.27;48.16;101367.66;4913570;29;20127;-75
2022/06/24 10:37:24;;;;;;;1.20;0.40;;;;;;;14.26;48.65;101360.66;4916098;29;20060;-75
2022/06/24 10:39:54;;;;;;;0.63;0.45;;;;;;;14.25;49.57;101358.94;4916758;29;20103;-75
2022/06/24 10:42:24;;;;;;;1.70;0.40;;;;;;;14.22;49.13;101353.63;4912585;29;20044;-76
2022/06/24 10:44:56;;;;;;;1.17;0.47;;;;;;;14.13;49.38;101350.78;4917274;29;20591;-75
2022/06/24 10:47:45;;;;;;;0.93;0.37;;;;;;;14.20;48.66;101361.41;4922472;29;20129;-76
2022/06/24 10:50:23;;;;;;;2.83;0.30;;;;;;;14.12;48.72;101346.44;4923108;29;20309;-76
2022/06/24 10:53:06;;;;;;;1.20;0.30;;;;;;;14.21;49.50;101372.69;4915182;29;20052;-76
2022/06/24 10:55:41;;;;;;;4.50;0.30;;;;;;;14.20;49.99;101365.72;4913593;29;20502;-75
2022/06/24 10:58:12;;;;;;;0.88;0.32;;;;;;;14.19;50.76;101370.06;4908650;29;20048;-77
2022/06/24 11:00:58;;;;;;;1.05;0.35;;;;;;;14.19;50.68;101369.19;4922686;29;20047;-76
2022/06/24 11:03:32;;;;;;;2.13;0.55;;;;;;;14.17;50.52;101363.06;4921012;29;20040;-76
2022/06/24 11:06:01;;;;;;;2.20;0.40;;;;;;;14.15;51.01;101362.13;4903248;29;20068;-76
2022/06/24 11:08:29;;;;;;;1.25;0.32;;;;;;;14.12;51.09;101359.47;4927799;28;20048;-76
2022/06/24 11:10:58;;;;;;;1.65;0.47;;;;;;;14.10;52.71;101358.53;4903686;29;20103;-75
2022/06/24 11:13:27;;;;;;;2.47;0.50;;;;;;;14.07;52.40;101359.34;4913361;29;20060;-77
2022/06/24 11:15:58;;;;;;;1.45;0.50;;;;;;;14.03;51.71;101363.59;4916391;29;20052;-76
2022/06/24 11:18:29;;;;;;;0.65;0.40;;;;;;;13.99;52.17;101364.34;4912691;29;20100;-74
2022/06/24 11:21:01;;;;;;;1.23;0.30;;;;;;;13.96;53.68;101355.59;4912171;29;20043;-74
2022/06/24 11:23:30;;;;;;;2.47;0.60;;;;;;;13.92;54.50;101366.75;4920455;29;20131;-75
2022/06/24 11:26:03;;;;;;;2.30;0.60;;;;;;;13.87;51.84;101365.78;4903292;29;20044;-75
2022/06/24 11:28:33;;;;;;;1.88;0.40;;;;;;;13.86;53.71;101366.59;4912637;29;20048;-75
2022/06/24 11:31:21;;;;;;;0.50;0.30;;;;;;;13.82;54.45;101368.25;4912410;29;20151;-76
2022/06/24 11:33:52;;;;;;;4.07;0.45;;;;;;;13.79;54.15;101371.66;4913967;29;20055;-75
2022/06/24 11:36:23;;;;;;;2.42;0.60;;;;;;;13.74;54.45;101373.25;4913718;29;20112;-74
2022/06/24 11:38:56;;;;;;;5.30;0.90;;;;;;;13.69;56.06;101382.63;4911456;29;20091;-75
2022/06/24 11:41:26;;;;;;;2.58;0.45;;;;;;;13.65;55.79;101382.50;4897441;29;20100;-74
2022/06/24 11:43:55;;;;;;;3.40;0.70;;;;;;;13.62;55.74;101383.31;4912006;29;20067;-75
2022/06/24 11:46:24;;;;;;;3.70;0.70;;;;;;;13.59;55.94;101386.72;4915883;29;20051;-74
2022/06/24 11:49:07;;;;;;;1.75;0.20;;;;;;;13.59;55.39;101386.72;4913107;29;20120;-75
2022/06/24 11:51:36;;;;;;;1.63;0.50;;;;;;;13.58;55.01;101390.19;4912627;29;20052;-74